메인 페이지
METAR-TAF:

METAR-TAF

공항 :

그린우드, 미시시피, 미국

위도: 33-29-33N, 경도: 090-05-01W, 고도: 47m

현재 날씨관측

예보는 1 시간 5분 전, 16:53시(UTC)에 발표되었습니다.
남서5kt
온도 29°C
습도 70%
기압 1017 hPa
시정: 16.1km
고도 1500ft 상공 구름 조금
고도 2200ft 상공 구름 조금

METAR: KGWO 251653Z AUTO 22005KT 10SM FEW015 FEW022 29/23 A3004 RMK AO2 SLP169 T02890233

시각: 12:58 (17:58 UTC)

예보

예보는 33분 전, 17:25시(UTC)에 발표되었습니다.
예보 대상 시간: 25일 18시부터 26일 18시까지 (UTC)
남서6kt
시정: 10km
고도 2000ft 상공 구름 조금
고도 5000ft 상공 구름 많음
25일 2000시부터 (UTC)
남서6kt
시정: 10km
고도 5000ft 상공 구름 보통
고도 10000ft 상공 구름 많음
시계 내 소나기
26일 0000시부터 (UTC)
남남서4kt
시정: 10km
고도 2500ft 상공 구름 조금
고도 5000ft 상공 구름 많음
26일 0800시부터 (UTC)
서남서4kt
시정: 9.7km
고도 1500ft 상공 구름 보통
고도 3000ft 상공 흐림
소나기, 박무
26일 1500시부터 (UTC)
5kt
시정: 10km
고도 2000ft 상공 흐림
소나기

TAF: KGWO 251725Z 2518/2618 22006KT P6SM FEW020 BKN050 FM252000 22006KT P6SM VCSH SCT050 BKN100 FM260000 20004KT P6SM FEW025 BKN050 FM260800 25004KT 6SM SHRA BR SCT015 OVC030 FM261500 35005KT P6SM SHRA OVC020

4,000개 이상의 공항 관측 자료 및 예보 (METAR 및 TAF 보고).

지도상에서 검색 가능한 기상관측소가 노란 점과 빨간 점으로 표시되어 있습니다.

기상관측소 명을 보려면 표시 위로 마우스를 이동하세요.

날씨 관측과 예보를 보려면 클릭하세요.

지도 변경 : 확대하려면 엑스 표시가 있는 녹색 버튼, 축소하려면 빼기 표시가 있는 녹색 버튼, 다음 페이지의 지도를 보려면 녹색 화살표를 클릭하세요.


METAR-TAF: